createdAt,value
2022-11-16T00:01:44.678Z,2.90
2022-11-16T00:04:12.977Z,2.83
2022-11-16T00:06:41.201Z,2.17
2022-11-16T00:09:23.826Z,3.03
2022-11-16T00:11:56.026Z,2.53
2022-11-16T00:14:26.126Z,2.13
2022-11-16T00:16:53.989Z,2.40
2022-11-16T00:19:21.861Z,2.33
2022-11-16T00:21:49.784Z,2.17
2022-11-16T00:24:20.359Z,2.03
2022-11-16T00:26:48.660Z,2.90
2022-11-16T00:29:20.008Z,2.90
2022-11-16T00:31:48.381Z,2.57
2022-11-16T00:34:16.590Z,2.63
2022-11-16T00:36:44.551Z,2.50
2022-11-16T00:39:13.323Z,2.90
2022-11-16T00:41:41.633Z,2.50
2022-11-16T00:44:09.657Z,2.40
2022-11-16T00:46:38.903Z,2.07
2022-11-16T00:49:07.544Z,2.23
2022-11-16T00:51:36.836Z,2.37
2022-11-16T00:54:06.563Z,2.43
2022-11-16T00:56:34.442Z,2.37
2022-11-16T00:59:02.261Z,2.40
2022-11-16T01:01:30.389Z,2.03
2022-11-16T01:03:59.906Z,2.27
2022-11-16T01:06:27.757Z,2.50
2022-11-16T01:08:55.623Z,2.50
2022-11-16T01:11:37.380Z,2.30
2022-11-16T01:14:06.963Z,1.80
2022-11-16T01:16:35.016Z,2.07
2022-11-16T01:19:04.938Z,2.33
2022-11-16T01:21:32.932Z,2.43
2022-11-16T01:24:00.769Z,2.67
2022-11-16T01:26:28.642Z,2.00
2022-11-16T01:28:56.502Z,2.20
2022-11-16T01:31:24.349Z,2.10
2022-11-16T01:33:52.172Z,2.83
2022-11-16T01:36:21.348Z,2.30
2022-11-16T01:38:49.154Z,2.23
2022-11-16T01:41:19.076Z,2.10
2022-11-16T01:43:53.243Z,1.90
2022-11-16T01:46:21.278Z,1.80
2022-11-16T01:48:53.030Z,2.53
2022-11-16T01:51:22.740Z,2.10
2022-11-16T01:53:51.179Z,2.30
2022-11-16T01:56:19.148Z,2.30
2022-11-16T01:58:47.637Z,2.27
2022-11-16T02:01:15.577Z,2.30
2022-11-16T02:03:43.481Z,2.20
2022-11-16T02:06:39.132Z,2.40
2022-11-16T02:09:53.888Z,2.50
2022-11-16T02:12:40.987Z,2.30
2022-11-16T02:15:16.160Z,2.10
2022-11-16T02:17:52.436Z,2.60
2022-11-16T02:20:44.995Z,2.40
2022-11-16T02:24:03.502Z,2.00
2022-11-16T02:26:49.342Z,2.20
2022-11-16T02:29:25.473Z,2.10
2022-11-16T02:32:00.571Z,1.97
2022-11-16T02:34:33.928Z,2.37
2022-11-16T02:37:04.663Z,1.77
2022-11-16T02:39:35.496Z,1.93
2022-11-16T02:42:05.634Z,2.23
2022-11-16T02:44:38.013Z,2.13
2022-11-16T02:47:12.440Z,3.13
2022-11-16T02:49:43.376Z,2.00
2022-11-16T02:52:14.020Z,2.27
2022-11-16T02:54:41.957Z,2.70
2022-11-16T02:57:31.660Z,1.90
2022-11-16T03:00:02.031Z,2.20
2022-11-16T03:02:36.980Z,2.00
2022-11-16T03:05:10.515Z,2.50
2022-11-16T03:07:41.699Z,2.30
2022-11-16T03:10:11.032Z,2.00
2022-11-16T03:12:41.027Z,2.30
2022-11-16T03:15:13.920Z,2.23
2022-11-16T03:17:45.327Z,2.30
2022-11-16T03:20:16.952Z,1.90
2022-11-16T03:22:46.849Z,2.00
2022-11-16T03:25:18.905Z,2.07
2022-11-16T03:27:54.102Z,1.70
2022-11-16T03:30:24.540Z,2.20
2022-11-16T03:32:58.237Z,2.00
2022-11-16T03:35:30.027Z,2.40
2022-11-16T03:38:00.462Z,2.43
2022-11-16T03:40:32.646Z,2.37
2022-11-16T03:43:02.052Z,2.27
2022-11-16T03:45:32.247Z,2.60
2022-11-16T03:48:01.149Z,2.43
2022-11-16T03:50:29.327Z,1.97
2022-11-16T03:52:57.203Z,2.00
2022-11-16T03:55:25.121Z,2.03
2022-11-16T03:57:52.984Z,2.30
2022-11-16T04:00:21.123Z,2.57
2022-11-16T04:02:50.750Z,1.90
2022-11-16T04:05:36.300Z,2.10
2022-11-16T04:08:21.705Z,2.03
2022-11-16T04:11:07.074Z,2.50
2022-11-16T04:13:53.303Z,2.47
2022-11-16T04:16:39.118Z,1.70
2022-11-16T04:19:27.395Z,2.00
2022-11-16T04:22:16.461Z,2.20
2022-11-16T04:24:47.631Z,2.40
2022-11-16T04:27:35.084Z,1.77
2022-11-16T04:30:04.518Z,2.57
2022-11-16T04:32:50.208Z,2.30
2022-11-16T04:35:42.452Z,2.63
2022-11-16T04:38:10.327Z,1.80
2022-11-16T04:40:38.155Z,2.40
2022-11-16T04:43:06.768Z,2.10
2022-11-16T04:45:52.367Z,2.50
2022-11-16T04:48:20.992Z,2.40
2022-11-16T04:50:50.283Z,2.27
2022-11-16T04:53:18.115Z,2.10
2022-11-16T04:55:45.967Z,2.00
2022-11-16T04:58:13.801Z,2.37
2022-11-16T05:00:41.616Z,2.30
2022-11-16T05:03:09.440Z,2.10
2022-11-16T05:05:37.819Z,2.90
2022-11-16T05:08:09.136Z,2.20
2022-11-16T05:10:37.183Z,2.17
2022-11-16T05:13:05.006Z,2.00
2022-11-16T05:15:32.863Z,2.30
2022-11-16T05:18:00.687Z,2.10
2022-11-16T05:20:46.103Z,2.27
2022-11-16T05:23:29.175Z,2.50
2022-11-16T05:25:57.031Z,2.10
2022-11-16T05:28:24.854Z,2.53
2022-11-16T05:30:52.660Z,2.13
2022-11-16T05:33:20.498Z,3.20
2022-11-16T05:35:51.439Z,2.33
2022-11-16T05:38:20.860Z,2.40
2022-11-16T05:40:48.696Z,1.70
2022-11-16T05:43:16.570Z,1.90
2022-11-16T05:45:44.503Z,2.20
2022-11-16T05:48:12.338Z,2.07
2022-11-16T05:50:42.983Z,2.20
2022-11-16T05:53:10.991Z,2.20
2022-11-16T05:55:40.234Z,2.13
2022-11-16T05:58:08.058Z,1.70
2022-11-16T06:00:35.898Z,2.40
2022-11-16T06:03:03.778Z,2.00
2022-11-16T06:05:35.093Z,2.30
2022-11-16T06:08:05.766Z,1.70
2022-11-16T06:10:33.596Z,1.83
2022-11-16T06:13:02.763Z,2.13
2022-11-16T06:15:30.588Z,2.20
2022-11-16T06:17:58.418Z,1.80
2022-11-16T06:20:26.247Z,2.50
2022-11-16T06:22:54.092Z,2.10
2022-11-16T06:25:21.986Z,2.00
2022-11-16T06:27:49.852Z,2.20
2022-11-16T06:30:19.433Z,2.80
2022-11-16T06:32:47.249Z,2.10
2022-11-16T06:35:15.087Z,2.10
2022-11-16T06:37:43.973Z,2.10
2022-11-16T06:40:12.650Z,1.97
2022-11-16T06:42:40.485Z,2.17
2022-11-16T06:45:09.101Z,2.00
2022-11-16T06:47:38.342Z,2.47
2022-11-16T06:50:06.726Z,2.13
2022-11-16T06:52:34.591Z,2.10
2022-11-16T06:55:02.435Z,2.23
2022-11-16T06:57:30.286Z,1.50
2022-11-16T06:59:58.218Z,2.10
2022-11-16T07:02:26.043Z,1.67
2022-11-16T07:04:59.262Z,2.30
2022-11-16T07:07:30.122Z,1.83
2022-11-16T07:09:57.975Z,1.77
2022-11-16T07:12:26.601Z,1.87
2022-11-16T07:14:54.435Z,2.00
2022-11-16T07:17:22.389Z,1.53
2022-11-16T07:19:50.242Z,2.00
2022-11-16T07:22:19.446Z,2.33
2022-11-16T07:24:47.276Z,2.27
2022-11-16T07:27:15.147Z,1.90
2022-11-16T07:29:42.973Z,1.80
2022-11-16T07:32:10.866Z,1.97
2022-11-16T07:34:38.699Z,2.10
2022-11-16T07:37:06.514Z,1.90
2022-11-16T07:39:35.684Z,1.70
2022-11-16T07:42:03.496Z,2.03
2022-11-16T07:44:31.300Z,1.80
2022-11-16T07:46:59.148Z,2.30
2022-11-16T07:49:26.954Z,1.80
2022-11-16T07:51:54.815Z,1.60
2022-11-16T07:54:22.645Z,1.60
2022-11-16T07:56:52.147Z,2.00
2022-11-16T07:59:19.990Z,1.90
2022-11-16T08:01:48.509Z,1.50
2022-11-16T08:04:17.486Z,1.87
2022-11-16T08:06:46.839Z,1.70
2022-11-16T08:09:14.774Z,1.97
2022-11-16T08:11:42.589Z,1.80
2022-11-16T08:14:12.680Z,1.97
2022-11-16T08:16:40.478Z,2.20
2022-11-16T08:19:08.321Z,2.00
2022-11-16T08:21:36.142Z,2.10
2022-11-16T08:24:04.130Z,1.77
2022-11-16T08:26:32.032Z,1.60
2022-11-16T08:29:00.035Z,1.73
2022-11-16T08:31:30.165Z,2.33
2022-11-16T08:34:00.264Z,1.90
2022-11-16T08:36:28.156Z,2.17
2022-11-16T08:38:56.028Z,1.53
2022-11-16T08:41:23.878Z,1.40
2022-11-16T08:43:53.280Z,2.10
2022-11-16T08:46:21.362Z,2.13
2022-11-16T08:48:50.548Z,1.77
2022-11-16T08:51:20.163Z,1.40
2022-11-16T08:53:49.365Z,2.03
2022-11-16T08:56:18.972Z,1.67
2022-11-16T08:58:48.831Z,2.00
2022-11-16T09:01:21.393Z,1.53
2022-11-16T09:03:50.868Z,1.43
2022-11-16T09:06:19.286Z,1.77
2022-11-16T09:08:47.940Z,1.93
2022-11-16T09:11:17.832Z,1.70
2022-11-16T09:13:46.581Z,1.90
2022-11-16T09:16:16.487Z,1.57
2022-11-16T09:18:45.582Z,1.50
2022-11-16T09:21:18.900Z,1.73
2022-11-16T09:23:47.418Z,1.73
2022-11-16T09:26:15.382Z,1.63
2022-11-16T09:28:43.286Z,1.60
2022-11-16T09:31:11.546Z,1.70
2022-11-16T09:33:39.408Z,1.70
2022-11-16T09:36:09.354Z,1.53
2022-11-16T09:39:13.306Z,1.50
2022-11-16T09:41:45.771Z,1.90
2022-11-16T09:44:28.164Z,1.30
2022-11-16T09:46:59.775Z,2.07
2022-11-16T09:49:32.177Z,1.57
2022-11-16T09:52:03.681Z,1.90
2022-11-16T09:54:36.477Z,1.50
2022-11-16T09:57:12.398Z,1.50
2022-11-16T09:59:45.392Z,1.70
2022-11-16T10:02:20.480Z,1.50
2022-11-16T10:04:57.992Z,1.57
2022-11-16T10:07:32.705Z,1.83
2022-11-16T10:10:01.928Z,1.53
2022-11-16T10:12:35.392Z,1.67
2022-11-16T10:15:16.714Z,1.97
2022-11-16T10:18:00.517Z,1.47
2022-11-16T10:20:50.818Z,1.57
2022-11-16T10:23:32.299Z,1.60
2022-11-16T10:26:13.663Z,1.60
2022-11-16T10:28:56.149Z,1.33
2022-11-16T10:31:33.286Z,1.93
2022-11-16T10:34:05.018Z,1.70
2022-11-16T10:36:36.468Z,1.30
2022-11-16T10:39:13.713Z,1.40
2022-11-16T10:41:45.723Z,1.67
2022-11-16T10:44:20.124Z,1.63
2022-11-16T10:46:57.301Z,1.70
2022-11-16T10:49:35.615Z,2.13
2022-11-16T10:52:03.714Z,1.63
2022-11-16T10:54:31.579Z,1.37
2022-11-16T10:57:05.727Z,1.70
2022-11-16T10:59:41.413Z,1.50
2022-11-16T11:02:37.233Z,1.60
2022-11-16T11:05:17.512Z,1.90
2022-11-16T11:07:52.992Z,1.30
2022-11-16T11:10:30.471Z,2.17
2022-11-16T11:13:07.536Z,1.50
2022-11-16T11:15:35.484Z,1.40
2022-11-16T11:18:19.020Z,1.53
2022-11-16T11:20:49.274Z,1.27
2022-11-16T11:23:20.072Z,1.27
2022-11-16T11:25:53.875Z,1.63
2022-11-16T11:28:26.227Z,2.37
2022-11-16T11:30:58.427Z,2.07
2022-11-16T11:33:28.690Z,1.47
2022-11-16T11:36:01.610Z,1.40
2022-11-16T11:38:29.463Z,1.10
2022-11-16T11:41:01.937Z,1.77
2022-11-16T11:43:33.524Z,1.70
2022-11-16T11:46:08.048Z,1.50
2022-11-16T11:48:47.722Z,1.40
2022-11-16T11:51:22.121Z,1.57
2022-11-16T11:53:56.309Z,1.63
2022-11-16T11:56:25.231Z,1.20
2022-11-16T11:58:55.012Z,1.47
2022-11-16T12:01:42.242Z,1.30
2022-11-16T12:04:52.882Z,1.50
2022-11-16T12:07:31.369Z,1.43
2022-11-16T12:10:08.391Z,1.43
2022-11-16T12:12:47.354Z,1.33
2022-11-16T12:15:49.691Z,1.53
2022-11-16T12:18:35.865Z,1.20
2022-11-16T12:21:13.234Z,1.33
2022-11-16T12:24:03.054Z,1.67
2022-11-16T12:26:41.232Z,1.43
2022-11-16T12:29:25.485Z,1.60
2022-11-16T12:32:18.626Z,1.40
2022-11-16T12:35:01.161Z,1.43
2022-11-16T12:37:36.487Z,1.37
2022-11-16T12:40:38.483Z,1.30
2022-11-16T12:43:16.647Z,2.27
2022-11-16T12:46:14.833Z,0.93
2022-11-16T12:49:09.736Z,1.70
2022-11-16T12:51:46.321Z,1.50
2022-11-16T12:54:32.863Z,1.83
2022-11-16T12:57:13.366Z,1.40
2022-11-16T13:00:07.070Z,1.47
2022-11-16T13:02:51.097Z,1.60
2022-11-16T13:05:22.602Z,1.20
2022-11-16T13:07:53.740Z,1.40
2022-11-16T13:10:27.195Z,1.43
2022-11-16T13:13:29.756Z,1.23
2022-11-16T13:15:49.708Z,1.27
2022-11-16T13:18:21.363Z,2.03
2022-11-16T13:20:57.065Z,1.20
2022-11-16T13:23:34.502Z,1.23
2022-11-16T13:26:10.418Z,1.30
2022-11-16T13:28:43.768Z,1.20
2022-11-16T13:31:15.417Z,1.40
2022-11-16T13:33:50.629Z,1.37
2022-11-16T13:36:47.772Z,1.20
2022-11-16T13:39:22.325Z,1.07
2022-11-16T13:41:52.530Z,1.47
2022-11-16T13:44:30.416Z,1.50
2022-11-16T13:47:04.317Z,1.60
2022-11-16T13:49:36.288Z,1.10
2022-11-16T13:52:22.466Z,1.43
2022-11-16T13:54:54.174Z,0.80
2022-11-16T13:57:25.867Z,1.20
2022-11-16T14:00:12.160Z,1.30
2022-11-16T14:02:41.636Z,1.17
2022-11-16T14:05:17.438Z,1.17
2022-11-16T14:07:49.560Z,1.10
2022-11-16T14:10:47.152Z,1.00
2022-11-16T14:13:39.630Z,1.07
2022-11-16T14:16:55.793Z,1.40
2022-11-16T14:19:54.774Z,1.10
2022-11-16T14:22:42.894Z,1.20
2022-11-16T14:25:24.071Z,1.33
2022-11-16T14:28:01.224Z,1.27
2022-11-16T14:30:33.893Z,1.13
2022-11-16T14:33:01.913Z,1.10
2022-11-16T14:35:34.999Z,1.40
2022-11-16T14:38:05.625Z,1.20
2022-11-16T14:40:43.812Z,1.10
2022-11-16T14:43:19.163Z,1.20
2022-11-16T14:45:49.994Z,1.00
2022-11-16T14:48:20.088Z,1.27
2022-11-16T14:50:59.817Z,1.10
2022-11-16T14:53:29.404Z,1.20
2022-11-16T14:56:10.555Z,1.10
2022-11-16T14:58:38.871Z,1.27
2022-11-16T15:01:08.926Z,1.47
2022-11-16T15:03:42.161Z,0.90
2022-11-16T15:06:10.442Z,1.20
2022-11-16T15:08:43.747Z,1.20
2022-11-16T15:11:22.135Z,1.10
2022-11-16T15:13:50.764Z,0.90
2022-11-16T15:16:20.918Z,1.27
2022-11-16T15:18:59.178Z,1.20
2022-11-16T15:21:27.436Z,1.10
2022-11-16T15:26:45.444Z,1.00
2022-11-16T15:29:17.592Z,1.20
2022-11-16T15:31:45.848Z,1.30
2022-11-16T15:34:14.817Z,1.10
2022-11-16T15:36:42.863Z,1.77
2022-11-16T15:39:15.907Z,0.80
2022-11-16T15:41:45.960Z,1.10
2022-11-16T15:44:17.138Z,0.80
2022-11-16T15:46:47.981Z,0.93
2022-11-16T15:49:29.840Z,1.13
2022-11-16T15:51:59.267Z,1.10
2022-11-16T15:54:29.124Z,1.00
2022-11-16T15:57:07.842Z,1.00
2022-11-16T15:59:38.016Z,1.00
2022-11-16T16:02:06.230Z,1.10
2022-11-16T16:04:34.104Z,1.10
2022-11-16T16:07:02.026Z,1.00
2022-11-16T16:09:32.089Z,1.10
2022-11-16T16:12:18.073Z,1.17
2022-11-16T16:14:46.644Z,1.13
2022-11-16T16:17:23.799Z,0.90
2022-11-16T16:19:56.914Z,1.10
2022-11-16T16:22:27.597Z,1.20
2022-11-16T16:24:55.953Z,1.40
2022-11-16T16:27:26.802Z,1.27
2022-11-16T16:29:56.594Z,1.20
2022-11-16T16:32:27.329Z,0.90
2022-11-16T16:34:56.396Z,1.10
2022-11-16T16:37:26.217Z,0.80
2022-11-16T16:39:54.072Z,1.40
2022-11-16T16:42:22.060Z,1.10
2022-11-16T16:44:51.761Z,1.20
2022-11-16T16:47:21.087Z,1.30
2022-11-16T16:49:49.132Z,1.03
2022-11-16T16:52:17.471Z,1.00
2022-11-16T16:54:45.329Z,1.37
2022-11-16T16:57:14.891Z,1.37
2022-11-16T16:59:44.947Z,1.33
2022-11-16T17:02:14.690Z,1.23
2022-11-16T17:04:43.902Z,1.20
2022-11-16T17:07:11.858Z,0.90
2022-11-16T17:09:39.791Z,1.00
2022-11-16T17:12:07.732Z,1.20
2022-11-16T17:14:35.582Z,1.23
2022-11-16T17:17:03.425Z,1.03
2022-11-16T17:19:32.660Z,1.20
2022-11-16T17:22:00.508Z,1.00
2022-11-16T17:24:28.354Z,1.20
2022-11-16T17:26:56.188Z,0.93
2022-11-16T17:29:24.382Z,1.57
2022-11-16T17:31:52.257Z,1.37
2022-11-16T17:34:20.094Z,1.20
2022-11-16T17:36:49.318Z,1.07
2022-11-16T17:39:17.185Z,1.43
2022-11-16T17:41:44.997Z,1.37
2022-11-16T17:44:17.201Z,0.93
2022-11-16T17:46:48.045Z,1.30
2022-11-16T17:49:15.971Z,1.10
2022-11-16T17:51:44.218Z,1.27
2022-11-16T17:54:13.406Z,1.30
2022-11-16T17:56:41.295Z,1.00
2022-11-16T17:59:09.122Z,1.10
2022-11-16T18:01:37.079Z,1.20
2022-11-16T18:04:05.219Z,1.40
2022-11-16T18:06:33.211Z,1.50
2022-11-16T18:09:01.259Z,1.20
2022-11-16T18:11:30.640Z,0.93
2022-11-16T18:14:00.432Z,1.60
2022-11-16T18:16:30.729Z,1.30
2022-11-16T18:19:00.970Z,1.30
2022-11-16T18:21:29.242Z,1.47
2022-11-16T18:23:57.353Z,1.53
2022-11-16T18:26:25.452Z,1.63
2022-11-16T18:28:54.694Z,1.30
2022-11-16T18:31:24.090Z,1.13
2022-11-16T18:33:52.763Z,1.33
2022-11-16T18:36:21.753Z,1.20
2022-11-16T18:38:49.679Z,1.40
2022-11-16T18:41:20.630Z,1.60
2022-11-16T18:43:53.187Z,1.30
2022-11-16T18:46:24.103Z,1.10
2022-11-16T18:48:51.913Z,1.20
2022-11-16T18:51:20.875Z,1.30
2022-11-16T18:53:49.172Z,1.70
2022-11-16T18:56:17.509Z,1.40
2022-11-16T18:58:53.458Z,1.30
2022-11-16T19:01:24.537Z,1.70
2022-11-16T19:03:52.825Z,1.67
2022-11-16T19:06:21.298Z,1.50
2022-11-16T19:08:55.801Z,1.90
2022-11-16T19:11:24.999Z,1.17
2022-11-16T19:13:54.663Z,1.73
2022-11-16T19:16:24.949Z,1.40
2022-11-16T19:18:53.485Z,1.73
2022-11-16T19:21:21.835Z,1.60
2022-11-16T19:23:51.726Z,1.50
2022-11-16T19:26:22.396Z,1.77
2022-11-16T19:28:51.369Z,1.73
2022-11-16T19:31:22.211Z,1.50
2022-11-16T19:33:55.092Z,1.60
2022-11-16T19:36:23.158Z,1.80
2022-11-16T19:38:51.481Z,1.70
2022-11-16T19:41:21.582Z,1.70
2022-11-16T19:43:51.205Z,1.33
2022-11-16T19:46:21.255Z,1.47
2022-11-16T19:48:49.421Z,1.47
2022-11-16T19:51:21.676Z,1.80
2022-11-16T19:53:49.561Z,1.97
2022-11-16T19:56:19.358Z,2.00
2022-11-16T19:58:47.917Z,2.37
2022-11-16T20:01:17.346Z,1.97
2022-11-16T20:03:45.677Z,1.70
2022-11-16T20:06:15.412Z,2.60
2022-11-16T20:08:48.585Z,2.00
2022-11-16T20:11:18.167Z,1.53
2022-11-16T20:13:46.048Z,1.73
2022-11-16T20:16:15.654Z,1.70
2022-11-16T20:18:44.369Z,1.70
2022-11-16T20:21:18.090Z,2.00
2022-11-16T20:23:47.280Z,1.70
2022-11-16T20:26:15.679Z,1.63
2022-11-16T20:28:44.474Z,1.90
2022-11-16T20:31:14.217Z,1.60
2022-11-16T20:33:42.723Z,2.10
2022-11-16T20:36:12.576Z,1.93
2022-11-16T20:38:41.229Z,2.10
2022-11-16T20:41:11.775Z,2.03
2022-11-16T20:43:40.344Z,2.20
2022-11-16T20:46:08.746Z,2.13
2022-11-16T20:48:37.280Z,1.80
2022-11-16T20:51:05.792Z,2.60
2022-11-16T20:53:34.166Z,2.07
2022-11-16T20:56:03.065Z,2.10
2022-11-16T20:58:33.104Z,1.87
2022-11-16T21:01:01.904Z,2.60
2022-11-16T21:03:29.933Z,2.00
2022-11-16T21:05:57.868Z,2.10
2022-11-16T21:08:26.154Z,2.50
2022-11-16T21:10:54.156Z,2.10
2022-11-16T21:13:39.977Z,1.90
2022-11-16T21:16:11.390Z,2.67
2022-11-16T21:18:40.244Z,1.80
2022-11-16T21:21:09.909Z,2.33
2022-11-16T21:23:39.069Z,2.40
2022-11-16T21:26:08.553Z,2.00
2022-11-16T21:28:36.426Z,3.00
2022-11-16T21:31:06.821Z,1.67
2022-11-16T21:33:36.479Z,2.30
2022-11-16T21:36:06.109Z,2.40
2022-11-16T21:38:34.963Z,1.70
2022-11-16T21:41:04.302Z,2.60
2022-11-16T21:43:33.944Z,2.20
2022-11-16T21:46:03.903Z,2.27
2022-11-16T21:48:33.994Z,2.13
2022-11-16T21:51:05.305Z,1.97
2022-11-16T21:53:33.657Z,2.60
2022-11-16T21:56:02.339Z,2.47
2022-11-16T21:58:30.268Z,2.40
2022-11-16T22:00:59.416Z,2.30
2022-11-16T22:03:29.582Z,2.40
2022-11-16T22:06:18.143Z,1.97
2022-11-16T22:08:48.144Z,2.40
2022-11-16T22:11:16.764Z,2.20
2022-11-16T22:13:44.984Z,2.13
2022-11-16T22:16:15.070Z,2.43
2022-11-16T22:18:44.148Z,2.70
2022-11-16T22:21:12.599Z,2.80
2022-11-16T22:23:40.793Z,2.57
2022-11-16T22:26:11.800Z,2.00
2022-11-16T22:28:40.037Z,2.53
2022-11-16T22:31:10.693Z,2.30
2022-11-16T22:33:39.305Z,2.50
2022-11-16T22:36:09.322Z,2.73
2022-11-16T22:38:37.839Z,2.10
2022-11-16T22:41:05.951Z,2.40
2022-11-16T22:43:36.009Z,2.17
2022-11-16T22:46:06.457Z,2.23
2022-11-16T22:48:35.887Z,2.07
2022-11-16T22:51:08.313Z,2.40
2022-11-16T22:53:36.547Z,2.00
2022-11-16T22:56:06.566Z,2.30
2022-11-16T22:58:35.893Z,2.57
2022-11-16T23:01:04.506Z,2.63
2022-11-16T23:03:32.833Z,2.83
2022-11-16T23:06:00.967Z,2.20
2022-11-16T23:08:29.592Z,3.50
2022-11-16T23:11:19.068Z,2.37
2022-11-16T23:14:06.849Z,2.47
2022-11-16T23:16:35.080Z,3.13
2022-11-16T23:19:03.110Z,2.33
2022-11-16T23:21:48.428Z,2.73
2022-11-16T23:24:34.171Z,2.63
2022-11-16T23:27:22.398Z,2.40
2022-11-16T23:29:53.461Z,2.20
2022-11-16T23:32:21.360Z,2.43
2022-11-16T23:34:49.267Z,2.30
2022-11-16T23:37:17.142Z,2.40
2022-11-16T23:39:45.090Z,1.87
2022-11-16T23:42:30.407Z,2.70
2022-11-16T23:44:59.628Z,2.10
2022-11-16T23:47:27.492Z,2.40
2022-11-16T23:49:55.397Z,2.50
2022-11-16T23:52:23.245Z,2.70
2022-11-16T23:54:51.112Z,2.60
2022-11-16T23:57:19.026Z,2.53
2022-11-16T23:59:46.903Z,2.57
